sensor_id;sensor_type;location;lat;lon;timestamp;P1;durP1;ratioP1;P2;durP2;ratioP2
6095;SDS011;25081;42.698;23.298;2023-12-20T00:01:48;210.57;;;115.17;;
6095;SDS011;25081;42.698;23.298;2023-12-20T00:03:59;200.35;;;105.07;;
6095;SDS011;25081;42.698;23.298;2023-12-20T00:06:10;195.28;;;95.57;;
6095;SDS011;25081;42.698;23.298;2023-12-20T00:08:20;172.95;;;94.70;;
6095;SDS011;25081;42.698;23.298;2023-12-20T00:10:30;172.02;;;96.05;;
6095;SDS011;25081;42.698;23.298;2023-12-20T00:12:41;187.37;;;96.60;;
6095;SDS011;25081;42.698;23.298;2023-12-20T00:14:52;205.57;;;107.52;;
6095;SDS011;25081;42.698;23.298;2023-12-20T00:17:02;180.70;;;92.92;;
6095;SDS011;25081;42.698;23.298;2023-12-20T00:19:13;181.82;;;96.42;;
6095;SDS011;25081;42.698;23.298;2023-12-20T00:21:24;183.55;;;93.92;;
6095;SDS011;25081;42.698;23.298;2023-12-20T00:23:37;163.75;;;87.08;;
6095;SDS011;25081;42.698;23.298;2023-12-20T00:25:48;169.28;;;86.30;;
6095;SDS011;25081;42.698;23.298;2023-12-20T00:27:58;171.98;;;88.95;;
6095;SDS011;25081;42.698;23.298;2023-12-20T00:30:10;168.78;;;88.10;;
6095;SDS011;25081;42.698;23.298;2023-12-20T00:32:21;171.70;;;89.45;;
6095;SDS011;25081;42.698;23.298;2023-12-20T00:34:31;164.75;;;84.28;;
6095;SDS011;25081;42.698;23.298;2023-12-20T00:36:42;162.95;;;87.37;;
6095;SDS011;25081;42.698;23.298;2023-12-20T00:38:52;165.47;;;85.90;;
6095;SDS011;25081;42.698;23.298;2023-12-20T00:41:03;171.70;;;89.35;;
6095;SDS011;25081;42.698;23.298;2023-12-20T00:43:13;180.52;;;89.32;;
6095;SDS011;25081;42.698;23.298;2023-12-20T00:45:24;174.20;;;92.30;;
6095;SDS011;25081;42.698;23.298;2023-12-20T00:47:34;168.52;;;92.05;;
6095;SDS011;25081;42.698;23.298;2023-12-20T00:49:45;158.82;;;81.97;;
6095;SDS011;25081;42.698;23.298;2023-12-20T00:51:55;166.20;;;85.38;;
6095;SDS011;25081;42.698;23.298;2023-12-20T00:54:06;163.97;;;83.65;;
6095;SDS011;25081;42.698;23.298;2023-12-20T00:56:16;165.70;;;92.72;;
6095;SDS011;25081;42.698;23.298;2023-12-20T00:58:27;171.25;;;95.77;;
6095;SDS011;25081;42.698;23.298;2023-12-20T01:00:38;173.50;;;93.47;;
6095;SDS011;25081;42.698;23.298;2023-12-20T01:02:48;168.35;;;90.92;;
6095;SDS011;25081;42.698;23.298;2023-12-20T01:04:59;171.90;;;88.90;;
6095;SDS011;25081;42.698;23.298;2023-12-20T01:07:10;164.85;;;92.62;;
6095;SDS011;25081;42.698;23.298;2023-12-20T01:09:20;176.85;;;96.45;;
6095;SDS011;25081;42.698;23.298;2023-12-20T01:11:31;180.35;;;92.65;;
6095;SDS011;25081;42.698;23.298;2023-12-20T01:13:41;161.57;;;89.47;;
6095;SDS011;25081;42.698;23.298;2023-12-20T01:15:52;166.35;;;89.52;;
6095;SDS011;25081;42.698;23.298;2023-12-20T01:18:03;165.52;;;88.58;;
6095;SDS011;25081;42.698;23.298;2023-12-20T01:20:14;177.82;;;91.28;;
6095;SDS011;25081;42.698;23.298;2023-12-20T01:22:25;186.60;;;95.07;;
6095;SDS011;25081;42.698;23.298;2023-12-20T01:24:35;164.55;;;90.40;;
6095;SDS011;25081;42.698;23.298;2023-12-20T01:26:46;183.40;;;89.17;;
6095;SDS011;25081;42.698;23.298;2023-12-20T01:28:57;173.32;;;87.15;;
6095;SDS011;25081;42.698;23.298;2023-12-20T01:31:08;147.93;;;81.25;;
6095;SDS011;25081;42.698;23.298;2023-12-20T01:33:18;168.82;;;87.50;;
6095;SDS011;25081;42.698;23.298;2023-12-20T01:35:28;166.00;;;86.95;;
6095;SDS011;25081;42.698;23.298;2023-12-20T01:37:39;155.97;;;83.87;;
6095;SDS011;25081;42.698;23.298;2023-12-20T01:39:49;156.12;;;87.90;;
6095;SDS011;25081;42.698;23.298;2023-12-20T01:42:00;146.55;;;83.52;;
6095;SDS011;25081;42.698;23.298;2023-12-20T01:44:11;155.52;;;82.97;;
6095;SDS011;25081;42.698;23.298;2023-12-20T01:46:21;148.82;;;79.15;;
6095;SDS011;25081;42.698;23.298;2023-12-20T01:48:32;167.45;;;81.47;;
6095;SDS011;25081;42.698;23.298;2023-12-20T01:50:43;172.82;;;85.42;;
6095;SDS011;25081;42.698;23.298;2023-12-20T01:52:53;144.93;;;80.57;;
6095;SDS011;25081;42.698;23.298;2023-12-20T01:55:05;172.30;;;81.37;;
6095;SDS011;25081;42.698;23.298;2023-12-20T01:57:16;159.65;;;80.28;;
6095;SDS011;25081;42.698;23.298;2023-12-20T01:59:26;162.03;;;86.12;;
6095;SDS011;25081;42.698;23.298;2023-12-20T02:01:37;155.63;;;78.10;;
6095;SDS011;25081;42.698;23.298;2023-12-20T02:03:47;161.05;;;85.17;;
6095;SDS011;25081;42.698;23.298;2023-12-20T02:05:58;154.03;;;79.15;;
6095;SDS011;25081;42.698;23.298;2023-12-20T02:08:08;159.75;;;80.17;;
6095;SDS011;25081;42.698;23.298;2023-12-20T02:10:19;138.72;;;74.90;;
6095;SDS011;25081;42.698;23.298;2023-12-20T02:12:29;132.67;;;71.67;;
6095;SDS011;25081;42.698;23.298;2023-12-20T02:14:40;150.50;;;79.03;;
6095;SDS011;25081;42.698;23.298;2023-12-20T02:16:50;141.70;;;75.12;;
6095;SDS011;25081;42.698;23.298;2023-12-20T02:19:01;132.52;;;75.62;;
6095;SDS011;25081;42.698;23.298;2023-12-20T02:21:11;154.20;;;80.03;;
6095;SDS011;25081;42.698;23.298;2023-12-20T02:23:22;147.02;;;79.37;;
6095;SDS011;25081;42.698;23.298;2023-12-20T02:25:32;148.78;;;81.75;;
6095;SDS011;25081;42.698;23.298;2023-12-20T02:27:43;153.35;;;82.27;;
6095;SDS011;25081;42.698;23.298;2023-12-20T02:29:53;130.03;;;74.00;;
6095;SDS011;25081;42.698;23.298;2023-12-20T02:32:04;133.20;;;70.62;;
6095;SDS011;25081;42.698;23.298;2023-12-20T02:34:15;103.85;;;54.20;;
6095;SDS011;25081;42.698;23.298;2023-12-20T02:36:26;91.57;;;47.75;;
6095;SDS011;25081;42.698;23.298;2023-12-20T02:38:36;98.62;;;44.83;;
6095;SDS011;25081;42.698;23.298;2023-12-20T02:40:47;86.35;;;43.87;;
6095;SDS011;25081;42.698;23.298;2023-12-20T02:42:57;69.12;;;37.73;;
6095;SDS011;25081;42.698;23.298;2023-12-20T02:45:09;82.33;;;40.92;;
6095;SDS011;25081;42.698;23.298;2023-12-20T02:47:19;78.80;;;41.68;;
6095;SDS011;25081;42.698;23.298;2023-12-20T02:49:30;80.03;;;38.65;;
6095;SDS011;25081;42.698;23.298;2023-12-20T02:51:40;82.25;;;40.20;;
6095;SDS011;25081;42.698;23.298;2023-12-20T02:53:51;74.22;;;39.03;;
6095;SDS011;25081;42.698;23.298;2023-12-20T02:56:01;85.07;;;39.67;;
6095;SDS011;25081;42.698;23.298;2023-12-20T02:58:12;84.85;;;37.38;;
6095;SDS011;25081;42.698;23.298;2023-12-20T03:00:23;88.82;;;38.17;;
6095;SDS011;25081;42.698;23.298;2023-12-20T03:02:33;78.47;;;32.78;;
6095;SDS011;25081;42.698;23.298;2023-12-20T03:04:44;65.80;;;32.78;;
6095;SDS011;25081;42.698;23.298;2023-12-20T03:06:54;75.08;;;33.20;;
6095;SDS011;25081;42.698;23.298;2023-12-20T03:09:05;93.10;;;36.60;;
6095;SDS011;25081;42.698;23.298;2023-12-20T03:11:15;75.32;;;33.75;;
6095;SDS011;25081;42.698;23.298;2023-12-20T03:13:26;72.97;;;32.53;;
6095;SDS011;25081;42.698;23.298;2023-12-20T03:15:36;72.08;;;35.13;;
6095;SDS011;25081;42.698;23.298;2023-12-20T03:17:47;78.35;;;34.27;;
6095;SDS011;25081;42.698;23.298;2023-12-20T03:19:57;72.27;;;33.88;;
6095;SDS011;25081;42.698;23.298;2023-12-20T03:22:08;83.42;;;36.03;;
6095;SDS011;25081;42.698;23.298;2023-12-20T03:24:18;83.42;;;34.90;;
6095;SDS011;25081;42.698;23.298;2023-12-20T03:26:29;91.87;;;35.88;;
6095;SDS011;25081;42.698;23.298;2023-12-20T03:28:39;95.05;;;35.28;;
6095;SDS011;25081;42.698;23.298;2023-12-20T03:30:50;113.70;;;35.28;;
6095;SDS011;25081;42.698;23.298;2023-12-20T03:33:00;106.27;;;37.83;;
6095;SDS011;25081;42.698;23.298;2023-12-20T03:35:11;73.33;;;35.58;;
6095;SDS011;25081;42.698;23.298;2023-12-20T03:37:22;72.87;;;34.20;;
6095;SDS011;25081;42.698;23.298;2023-12-20T03:39:33;72.67;;;31.93;;
6095;SDS011;25081;42.698;23.298;2023-12-20T03:41:43;77.62;;;34.43;;
6095;SDS011;25081;42.698;23.298;2023-12-20T03:43:54;75.47;;;33.90;;
6095;SDS011;25081;42.698;23.298;2023-12-20T03:46:04;82.45;;;35.78;;
6095;SDS011;25081;42.698;23.298;2023-12-20T03:48:15;71.37;;;36.35;;
6095;SDS011;25081;42.698;23.298;2023-12-20T03:50:26;73.50;;;34.80;;
6095;SDS011;25081;42.698;23.298;2023-12-20T03:52:36;87.33;;;37.90;;
6095;SDS011;25081;42.698;23.298;2023-12-20T03:54:46;95.12;;;36.03;;
6095;SDS011;25081;42.698;23.298;2023-12-20T03:56:57;75.78;;;34.50;;
6095;SDS011;25081;42.698;23.298;2023-12-20T03:59:08;79.58;;;36.00;;
6095;SDS011;25081;42.698;23.298;2023-12-20T04:01:18;102.32;;;36.98;;
6095;SDS011;25081;42.698;23.298;2023-12-20T04:03:29;72.55;;;33.28;;
6095;SDS011;25081;42.698;23.298;2023-12-20T04:05:39;95.22;;;36.40;;
6095;SDS011;25081;42.698;23.298;2023-12-20T04:07:50;92.08;;;39.05;;
6095;SDS011;25081;42.698;23.298;2023-12-20T04:10:01;79.47;;;35.38;;
6095;SDS011;25081;42.698;23.298;2023-12-20T04:12:12;80.77;;;35.92;;
6095;SDS011;25081;42.698;23.298;2023-12-20T04:14:22;91.20;;;37.05;;
6095;SDS011;25081;42.698;23.298;2023-12-20T04:16:33;83.25;;;35.30;;
6095;SDS011;25081;42.698;23.298;2023-12-20T04:18:44;110.55;;;37.75;;
6095;SDS011;25081;42.698;23.298;2023-12-20T04:20:54;101.85;;;38.15;;
6095;SDS011;25081;42.698;23.298;2023-12-20T04:23:05;74.70;;;35.00;;
6095;SDS011;25081;42.698;23.298;2023-12-20T04:25:15;118.97;;;39.58;;
6095;SDS011;25081;42.698;23.298;2023-12-20T04:27:26;104.20;;;40.10;;
6095;SDS011;25081;42.698;23.298;2023-12-20T04:29:36;97.70;;;38.38;;
6095;SDS011;25081;42.698;23.298;2023-12-20T04:31:47;126.87;;;39.18;;
6095;SDS011;25081;42.698;23.298;2023-12-20T04:33:57;90.70;;;37.63;;
6095;SDS011;25081;42.698;23.298;2023-12-20T04:36:08;87.37;;;41.53;;
6095;SDS011;25081;42.698;23.298;2023-12-20T04:38:18;93.82;;;38.13;;
6095;SDS011;25081;42.698;23.298;2023-12-20T04:40:29;85.07;;;40.92;;
6095;SDS011;25081;42.698;23.298;2023-12-20T04:42:40;107.58;;;41.68;;
6095;SDS011;25081;42.698;23.298;2023-12-20T04:44:50;97.88;;;39.23;;
6095;SDS011;25081;42.698;23.298;2023-12-20T04:47:01;97.72;;;42.25;;
6095;SDS011;25081;42.698;23.298;2023-12-20T04:49:11;154.68;;;44.90;;
6095;SDS011;25081;42.698;23.298;2023-12-20T04:51:22;112.60;;;42.62;;
6095;SDS011;25081;42.698;23.298;2023-12-20T04:53:32;121.02;;;48.78;;
6095;SDS011;25081;42.698;23.298;2023-12-20T04:55:43;109.15;;;44.55;;
6095;SDS011;25081;42.698;23.298;2023-12-20T04:57:54;133.15;;;47.95;;
6095;SDS011;25081;42.698;23.298;2023-12-20T05:00:06;105.47;;;46.60;;
6095;SDS011;25081;42.698;23.298;2023-12-20T05:02:18;112.32;;;47.13;;
6095;SDS011;25081;42.698;23.298;2023-12-20T05:04:28;99.45;;;43.63;;
6095;SDS011;25081;42.698;23.298;2023-12-20T05:06:39;93.30;;;45.50;;
6095;SDS011;25081;42.698;23.298;2023-12-20T05:08:50;117.17;;;44.50;;
6095;SDS011;25081;42.698;23.298;2023-12-20T05:11:02;112.00;;;45.98;;
6095;SDS011;25081;42.698;23.298;2023-12-20T05:13:13;132.45;;;46.73;;
6095;SDS011;25081;42.698;23.298;2023-12-20T05:15:23;99.65;;;43.63;;
6095;SDS011;25081;42.698;23.298;2023-12-20T05:17:34;160.18;;;49.65;;
6095;SDS011;25081;42.698;23.298;2023-12-20T05:19:45;110.28;;;45.75;;
6095;SDS011;25081;42.698;23.298;2023-12-20T05:21:57;108.40;;;48.00;;
6095;SDS011;25081;42.698;23.298;2023-12-20T05:24:07;108.00;;;47.83;;
6095;SDS011;25081;42.698;23.298;2023-12-20T05:26:18;106.30;;;43.75;;
6095;SDS011;25081;42.698;23.298;2023-12-20T05:28:29;101.85;;;47.80;;
6095;SDS011;25081;42.698;23.298;2023-12-20T05:30:39;111.88;;;48.58;;
6095;SDS011;25081;42.698;23.298;2023-12-20T05:32:50;123.97;;;51.53;;
6095;SDS011;25081;42.698;23.298;2023-12-20T05:35:01;111.90;;;48.20;;
6095;SDS011;25081;42.698;23.298;2023-12-20T05:37:12;97.02;;;44.08;;
6095;SDS011;25081;42.698;23.298;2023-12-20T05:39:23;114.15;;;45.88;;
6095;SDS011;25081;42.698;23.298;2023-12-20T05:41:33;140.25;;;49.08;;
6095;SDS011;25081;42.698;23.298;2023-12-20T05:43:44;102.47;;;44.35;;
6095;SDS011;25081;42.698;23.298;2023-12-20T05:45:55;128.55;;;47.80;;
6095;SDS011;25081;42.698;23.298;2023-12-20T05:48:06;105.20;;;44.35;;
6095;SDS011;25081;42.698;23.298;2023-12-20T05:50:17;118.30;;;43.33;;
6095;SDS011;25081;42.698;23.298;2023-12-20T05:52:27;108.90;;;44.00;;
6095;SDS011;25081;42.698;23.298;2023-12-20T05:54:38;89.85;;;43.52;;
6095;SDS011;25081;42.698;23.298;2023-12-20T05:56:49;104.72;;;44.83;;
6095;SDS011;25081;42.698;23.298;2023-12-20T05:58:59;92.65;;;39.18;;
6095;SDS011;25081;42.698;23.298;2023-12-20T06:01:10;101.97;;;42.85;;
6095;SDS011;25081;42.698;23.298;2023-12-20T06:03:20;126.00;;;44.20;;
6095;SDS011;25081;42.698;23.298;2023-12-20T06:05:31;94.30;;;40.78;;
6095;SDS011;25081;42.698;23.298;2023-12-20T06:07:41;119.67;;;43.23;;
6095;SDS011;25081;42.698;23.298;2023-12-20T06:09:52;95.07;;;41.40;;
6095;SDS011;25081;42.698;23.298;2023-12-20T06:12:03;97.95;;;40.95;;
6095;SDS011;25081;42.698;23.298;2023-12-20T06:14:14;90.38;;;40.95;;
6095;SDS011;25081;42.698;23.298;2023-12-20T06:16:24;92.05;;;42.45;;
6095;SDS011;25081;42.698;23.298;2023-12-20T06:18:35;95.12;;;43.23;;
6095;SDS011;25081;42.698;23.298;2023-12-20T06:20:45;120.95;;;44.75;;
6095;SDS011;25081;42.698;23.298;2023-12-20T06:22:56;100.82;;;45.98;;
6095;SDS011;25081;42.698;23.298;2023-12-20T06:25:07;116.03;;;45.33;;
6095;SDS011;25081;42.698;23.298;2023-12-20T06:27:18;91.63;;;41.65;;
6095;SDS011;25081;42.698;23.298;2023-12-20T06:29:29;111.83;;;42.33;;
6095;SDS011;25081;42.698;23.298;2023-12-20T06:31:40;98.45;;;43.15;;
6095;SDS011;25081;42.698;23.298;2023-12-20T06:33:50;99.35;;;42.98;;
6095;SDS011;25081;42.698;23.298;2023-12-20T06:36:02;126.07;;;48.08;;
6095;SDS011;25081;42.698;23.298;2023-12-20T06:38:13;100.75;;;45.55;;
6095;SDS011;25081;42.698;23.298;2023-12-20T06:40:23;107.55;;;44.05;;
6095;SDS011;25081;42.698;23.298;2023-12-20T06:42:34;98.17;;;45.05;;
6095;SDS011;25081;42.698;23.298;2023-12-20T06:44:44;94.22;;;39.60;;
6095;SDS011;25081;42.698;23.298;2023-12-20T06:46:55;115.08;;;45.10;;
6095;SDS011;25081;42.698;23.298;2023-12-20T06:49:05;98.10;;;41.60;;
6095;SDS011;25081;42.698;23.298;2023-12-20T06:51:16;124.25;;;43.85;;
6095;SDS011;25081;42.698;23.298;2023-12-20T06:53:27;146.37;;;47.25;;
6095;SDS011;25081;42.698;23.298;2023-12-20T06:55:38;104.97;;;45.70;;
6095;SDS011;25081;42.698;23.298;2023-12-20T06:57:48;107.47;;;45.08;;
6095;SDS011;25081;42.698;23.298;2023-12-20T06:59:59;109.75;;;44.77;;
6095;SDS011;25081;42.698;23.298;2023-12-20T07:02:09;125.05;;;48.08;;
6095;SDS011;25081;42.698;23.298;2023-12-20T07:04:20;143.82;;;51.33;;
6095;SDS011;25081;42.698;23.298;2023-12-20T07:06:31;104.32;;;43.30;;
6095;SDS011;25081;42.698;23.298;2023-12-20T07:08:41;114.37;;;41.40;;
6095;SDS011;25081;42.698;23.298;2023-12-20T07:10:52;115.85;;;47.73;;
6095;SDS011;25081;42.698;23.298;2023-12-20T07:13:02;98.33;;;42.98;;
6095;SDS011;25081;42.698;23.298;2023-12-20T07:15:13;126.58;;;45.52;;
6095;SDS011;25081;42.698;23.298;2023-12-20T07:17:24;100.40;;;44.65;;
6095;SDS011;25081;42.698;23.298;2023-12-20T07:19:34;110.57;;;47.13;;
6095;SDS011;25081;42.698;23.298;2023-12-20T07:21:45;110.65;;;47.55;;
6095;SDS011;25081;42.698;23.298;2023-12-20T07:23:55;127.12;;;48.30;;
6095;SDS011;25081;42.698;23.298;2023-12-20T07:26:06;115.90;;;48.10;;
6095;SDS011;25081;42.698;23.298;2023-12-20T07:28:16;107.60;;;43.65;;
6095;SDS011;25081;42.698;23.298;2023-12-20T07:30:27;104.50;;;46.53;;
6095;SDS011;25081;42.698;23.298;2023-12-20T07:32:37;116.88;;;48.60;;
6095;SDS011;25081;42.698;23.298;2023-12-20T07:34:48;111.22;;;47.80;;
6095;SDS011;25081;42.698;23.298;2023-12-20T07:36:59;96.42;;;46.92;;
6095;SDS011;25081;42.698;23.298;2023-12-20T07:39:09;100.67;;;44.05;;
6095;SDS011;25081;42.698;23.298;2023-12-20T07:41:20;128.27;;;46.28;;
6095;SDS011;25081;42.698;23.298;2023-12-20T07:43:30;106.95;;;44.65;;
6095;SDS011;25081;42.698;23.298;2023-12-20T07:45:41;105.67;;;48.40;;
6095;SDS011;25081;42.698;23.298;2023-12-20T07:47:51;107.45;;;46.90;;
6095;SDS011;25081;42.698;23.298;2023-12-20T07:50:02;109.72;;;47.35;;
6095;SDS011;25081;42.698;23.298;2023-12-20T07:52:13;116.42;;;49.40;;
6095;SDS011;25081;42.698;23.298;2023-12-20T07:54:24;116.03;;;49.35;;
6095;SDS011;25081;42.698;23.298;2023-12-20T07:56:34;108.05;;;46.35;;
6095;SDS011;25081;42.698;23.298;2023-12-20T07:58:45;110.32;;;47.38;;
6095;SDS011;25081;42.698;23.298;2023-12-20T08:00:56;109.50;;;46.55;;
6095;SDS011;25081;42.698;23.298;2023-12-20T08:03:07;106.25;;;46.55;;
6095;SDS011;25081;42.698;23.298;2023-12-20T08:05:17;103.65;;;48.35;;
6095;SDS011;25081;42.698;23.298;2023-12-20T08:07:28;101.35;;;47.88;;
6095;SDS011;25081;42.698;23.298;2023-12-20T08:09:38;124.75;;;51.23;;
6095;SDS011;25081;42.698;23.298;2023-12-20T08:11:49;118.70;;;47.05;;
6095;SDS011;25081;42.698;23.298;2023-12-20T08:13:59;112.70;;;47.38;;
6095;SDS011;25081;42.698;23.298;2023-12-20T08:16:10;104.72;;;47.13;;
6095;SDS011;25081;42.698;23.298;2023-12-20T08:18:21;107.07;;;46.28;;
6095;SDS011;25081;42.698;23.298;2023-12-20T08:20:31;104.90;;;47.80;;
6095;SDS011;25081;42.698;23.298;2023-12-20T08:22:42;106.00;;;46.30;;
6095;SDS011;25081;42.698;23.298;2023-12-20T08:24:53;110.68;;;45.70;;
6095;SDS011;25081;42.698;23.298;2023-12-20T08:27:04;115.85;;;50.05;;
6095;SDS011;25081;42.698;23.298;2023-12-20T08:29:14;109.40;;;50.12;;
6095;SDS011;25081;42.698;23.298;2023-12-20T08:31:25;104.83;;;48.20;;
6095;SDS011;25081;42.698;23.298;2023-12-20T08:33:35;117.22;;;48.70;;
6095;SDS011;25081;42.698;23.298;2023-12-20T08:35:46;109.95;;;49.05;;
6095;SDS011;25081;42.698;23.298;2023-12-20T08:37:56;102.78;;;46.95;;
6095;SDS011;25081;42.698;23.298;2023-12-20T08:40:08;103.60;;;49.30;;
6095;SDS011;25081;42.698;23.298;2023-12-20T08:42:19;119.67;;;47.20;;
6095;SDS011;25081;42.698;23.298;2023-12-20T08:44:29;115.85;;;50.92;;
6095;SDS011;25081;42.698;23.298;2023-12-20T08:46:40;116.25;;;51.95;;
6095;SDS011;25081;42.698;23.298;2023-12-20T08:48:50;116.65;;;52.25;;
6095;SDS011;25081;42.698;23.298;2023-12-20T08:51:01;108.78;;;50.70;;
6095;SDS011;25081;42.698;23.298;2023-12-20T08:53:12;122.40;;;51.37;;
6095;SDS011;25081;42.698;23.298;2023-12-20T08:55:22;116.53;;;51.58;;
6095;SDS011;25081;42.698;23.298;2023-12-20T08:57:33;107.40;;;49.77;;
6095;SDS011;25081;42.698;23.298;2023-12-20T08:59:43;108.50;;;51.35;;
6095;SDS011;25081;42.698;23.298;2023-12-20T09:01:54;114.20;;;49.48;;
6095;SDS011;25081;42.698;23.298;2023-12-20T09:04:04;123.42;;;52.95;;
6095;SDS011;25081;42.698;23.298;2023-12-20T09:06:15;126.65;;;50.78;;
6095;SDS011;25081;42.698;23.298;2023-12-20T09:08:26;137.47;;;58.17;;
6095;SDS011;25081;42.698;23.298;2023-12-20T09:10:36;119.40;;;53.23;;
6095;SDS011;25081;42.698;23.298;2023-12-20T09:12:47;129.70;;;50.67;;
6095;SDS011;25081;42.698;23.298;2023-12-20T09:14:57;123.30;;;53.68;;
6095;SDS011;25081;42.698;23.298;2023-12-20T09:17:08;131.55;;;56.65;;
6095;SDS011;25081;42.698;23.298;2023-12-20T09:19:19;131.82;;;55.20;;
6095;SDS011;25081;42.698;23.298;2023-12-20T09:21:29;143.00;;;59.75;;
6095;SDS011;25081;42.698;23.298;2023-12-20T09:23:40;145.00;;;57.65;;
6095;SDS011;25081;42.698;23.298;2023-12-20T09:25:50;122.35;;;57.55;;
6095;SDS011;25081;42.698;23.298;2023-12-20T09:28:01;148.87;;;60.45;;
6095;SDS011;25081;42.698;23.298;2023-12-20T09:30:12;133.25;;;60.05;;
6095;SDS011;25081;42.698;23.298;2023-12-20T09:32:23;143.65;;;62.20;;
6095;SDS011;25081;42.698;23.298;2023-12-20T09:34:33;134.63;;;60.30;;
6095;SDS011;25081;42.698;23.298;2023-12-20T09:36:44;148.22;;;63.87;;
6095;SDS011;25081;42.698;23.298;2023-12-20T09:38:55;135.90;;;59.35;;
6095;SDS011;25081;42.698;23.298;2023-12-20T09:41:05;122.10;;;58.48;;
6095;SDS011;25081;42.698;23.298;2023-12-20T09:43:17;144.50;;;60.63;;
6095;SDS011;25081;42.698;23.298;2023-12-20T09:45:26;129.23;;;62.65;;
6095;SDS011;25081;42.698;23.298;2023-12-20T09:47:37;150.07;;;65.12;;
6095;SDS011;25081;42.698;23.298;2023-12-20T09:49:47;132.57;;;63.60;;
6095;SDS011;25081;42.698;23.298;2023-12-20T09:51:58;139.95;;;65.70;;
6095;SDS011;25081;42.698;23.298;2023-12-20T09:54:09;136.95;;;63.33;;
6095;SDS011;25081;42.698;23.298;2023-12-20T09:56:19;155.22;;;68.45;;
6095;SDS011;25081;42.698;23.298;2023-12-20T09:58:30;148.28;;;64.55;;
6095;SDS011;25081;42.698;23.298;2023-12-20T10:00:40;139.65;;;66.17;;
6095;SDS011;25081;42.698;23.298;2023-12-20T10:02:53;133.10;;;62.03;;
6095;SDS011;25081;42.698;23.298;2023-12-20T10:05:02;165.88;;;68.87;;
6095;SDS011;25081;42.698;23.298;2023-12-20T10:07:13;134.18;;;67.37;;
6095;SDS011;25081;42.698;23.298;2023-12-20T10:09:24;143.25;;;64.37;;
6095;SDS011;25081;42.698;23.298;2023-12-20T10:11:35;142.55;;;66.55;;
6095;SDS011;25081;42.698;23.298;2023-12-20T10:13:46;147.65;;;68.62;;
6095;SDS011;25081;42.698;23.298;2023-12-20T10:15:57;155.15;;;71.50;;
6095;SDS011;25081;42.698;23.298;2023-12-20T10:18:07;153.82;;;62.98;;
6095;SDS011;25081;42.698;23.298;2023-12-20T10:20:18;155.57;;;68.70;;
6095;SDS011;25081;42.698;23.298;2023-12-20T10:22:33;146.82;;;68.87;;
6095;SDS011;25081;42.698;23.298;2023-12-20T10:24:57;147.53;;;71.07;;
6095;SDS011;25081;42.698;23.298;2023-12-20T10:27:07;150.60;;;67.60;;
6095;SDS011;25081;42.698;23.298;2023-12-20T10:29:18;149.00;;;71.30;;
6095;SDS011;25081;42.698;23.298;2023-12-20T10:31:29;164.05;;;73.02;;
6095;SDS011;25081;42.698;23.298;2023-12-20T10:33:39;170.02;;;69.60;;
6095;SDS011;25081;42.698;23.298;2023-12-20T10:35:50;159.07;;;74.32;;
6095;SDS011;25081;42.698;23.298;2023-12-20T10:38:02;170.85;;;74.97;;
6095;SDS011;25081;42.698;23.298;2023-12-20T10:40:11;168.37;;;70.52;;
6095;SDS011;25081;42.698;23.298;2023-12-20T10:42:22;163.82;;;78.62;;
6095;SDS011;25081;42.698;23.298;2023-12-20T10:44:32;158.22;;;76.07;;
6095;SDS011;25081;42.698;23.298;2023-12-20T10:46:43;157.70;;;74.65;;
6095;SDS011;25081;42.698;23.298;2023-12-20T10:48:54;160.10;;;78.25;;
6095;SDS011;25081;42.698;23.298;2023-12-20T10:51:05;154.90;;;75.90;;
6095;SDS011;25081;42.698;23.298;2023-12-20T10:53:15;146.55;;;75.97;;
6095;SDS011;25081;42.698;23.298;2023-12-20T10:55:26;152.85;;;73.55;;
6095;SDS011;25081;42.698;23.298;2023-12-20T10:57:39;136.07;;;72.50;;
6095;SDS011;25081;42.698;23.298;2023-12-20T10:59:50;145.27;;;71.60;;
6095;SDS011;25081;42.698;23.298;2023-12-20T11:02:00;151.95;;;76.12;;
6095;SDS011;25081;42.698;23.298;2023-12-20T11:04:13;148.00;;;72.27;;
6095;SDS011;25081;42.698;23.298;2023-12-20T11:06:27;154.72;;;78.02;;
6095;SDS011;25081;42.698;23.298;2023-12-20T11:08:39;160.43;;;83.30;;
6095;SDS011;25081;42.698;23.298;2023-12-20T11:10:51;167.95;;;80.83;;
6095;SDS011;25081;42.698;23.298;2023-12-20T11:13:02;177.78;;;79.20;;
6095;SDS011;25081;42.698;23.298;2023-12-20T11:15:12;168.75;;;82.97;;
6095;SDS011;25081;42.698;23.298;2023-12-20T11:17:23;169.47;;;82.15;;
6095;SDS011;25081;42.698;23.298;2023-12-20T11:19:34;163.72;;;81.42;;
6095;SDS011;25081;42.698;23.298;2023-12-20T11:21:46;166.82;;;81.42;;
6095;SDS011;25081;42.698;23.298;2023-12-20T11:23:57;164.80;;;83.67;;
6095;SDS011;25081;42.698;23.298;2023-12-20T11:26:07;187.53;;;81.97;;
6095;SDS011;25081;42.698;23.298;2023-12-20T11:28:20;197.62;;;82.67;;
6095;SDS011;25081;42.698;23.298;2023-12-20T11:30:30;162.05;;;77.82;;
6095;SDS011;25081;42.698;23.298;2023-12-20T11:32:50;177.35;;;80.72;;
6095;SDS011;25081;42.698;23.298;2023-12-20T11:35:01;167.70;;;79.47;;
6095;SDS011;25081;42.698;23.298;2023-12-20T11:37:11;177.02;;;83.65;;
6095;SDS011;25081;42.698;23.298;2023-12-20T11:39:21;180.37;;;78.67;;
6095;SDS011;25081;42.698;23.298;2023-12-20T11:41:32;167.98;;;75.50;;
6095;SDS011;25081;42.698;23.298;2023-12-20T11:43:42;161.07;;;74.15;;
6095;SDS011;25081;42.698;23.298;2023-12-20T11:45:54;151.22;;;72.72;;
6095;SDS011;25081;42.698;23.298;2023-12-20T11:48:05;159.50;;;71.10;;
6095;SDS011;25081;42.698;23.298;2023-12-20T11:50:16;157.12;;;70.50;;
6095;SDS011;25081;42.698;23.298;2023-12-20T11:52:27;137.40;;;66.67;;
6095;SDS011;25081;42.698;23.298;2023-12-20T11:54:37;132.87;;;63.40;;
6095;SDS011;25081;42.698;23.298;2023-12-20T11:56:48;139.55;;;67.90;;
6095;SDS011;25081;42.698;23.298;2023-12-20T11:58:59;154.38;;;73.02;;
6095;SDS011;25081;42.698;23.298;2023-12-20T12:01:09;142.75;;;68.37;;
6095;SDS011;25081;42.698;23.298;2023-12-20T12:03:20;140.47;;;62.50;;
6095;SDS011;25081;42.698;23.298;2023-12-20T12:05:31;145.15;;;63.13;;
6095;SDS011;25081;42.698;23.298;2023-12-20T12:07:42;132.97;;;58.48;;
6095;SDS011;25081;42.698;23.298;2023-12-20T12:09:52;130.78;;;62.98;;
6095;SDS011;25081;42.698;23.298;2023-12-20T12:12:04;118.33;;;56.45;;
6095;SDS011;25081;42.698;23.298;2023-12-20T12:14:15;128.25;;;60.73;;
6095;SDS011;25081;42.698;23.298;2023-12-20T12:16:26;134.03;;;62.70;;
6095;SDS011;25081;42.698;23.298;2023-12-20T12:18:36;151.93;;;64.05;;
6095;SDS011;25081;42.698;23.298;2023-12-20T12:20:47;146.37;;;59.25;;
6095;SDS011;25081;42.698;23.298;2023-12-20T12:23:01;126.18;;;57.85;;
6095;SDS011;25081;42.698;23.298;2023-12-20T12:25:12;133.63;;;58.40;;
6095;SDS011;25081;42.698;23.298;2023-12-20T12:27:22;140.92;;;62.93;;
6095;SDS011;25081;42.698;23.298;2023-12-20T12:29:33;136.03;;;58.05;;
6095;SDS011;25081;42.698;23.298;2023-12-20T12:31:43;131.65;;;62.55;;
6095;SDS011;25081;42.698;23.298;2023-12-20T12:33:54;127.80;;;56.98;;
6095;SDS011;25081;42.698;23.298;2023-12-20T12:36:06;136.68;;;61.60;;